createdAt,value
2024-05-09T00:02:08.657Z,69.93
2024-05-09T00:04:36.186Z,70.16
2024-05-09T00:07:12.383Z,70.24
2024-05-09T00:09:39.584Z,70.61
2024-05-09T00:12:15.904Z,70.67
2024-05-09T00:14:52.193Z,70.57
2024-05-09T00:17:19.486Z,69.70
2024-05-09T00:19:46.950Z,69.65
2024-05-09T00:22:23.236Z,69.94
2024-05-09T00:24:50.520Z,71.11
2024-05-09T00:27:17.852Z,71.44
2024-05-09T00:29:44.981Z,71.63
2024-05-09T00:32:21.369Z,72.19
2024-05-09T00:34:57.772Z,71.43
2024-05-09T00:37:33.964Z,72.88
2024-05-09T00:40:18.275Z,72.51
2024-05-09T00:42:50.123Z,72.17
2024-05-09T00:45:17.288Z,72.79
2024-05-09T00:47:44.687Z,73.49
2024-05-09T00:50:18.976Z,72.98
2024-05-09T00:52:58.722Z,73.41
2024-05-09T00:55:25.997Z,72.22
2024-05-09T00:57:53.339Z,71.86
2024-05-09T01:00:27.275Z,71.20
2024-05-09T01:03:13.441Z,72.04
2024-05-09T01:05:42.097Z,73.14
2024-05-09T01:08:10.040Z,73.51
2024-05-09T01:10:37.639Z,72.58
2024-05-09T01:13:05.116Z,73.45
2024-05-09T01:15:32.430Z,72.14
2024-05-09T01:18:08.912Z,72.36
2024-05-09T01:20:41.539Z,72.59
2024-05-09T01:23:11.936Z,72.34
2024-05-09T01:25:48.548Z,73.24
2024-05-09T01:28:15.796Z,72.22
2024-05-09T01:30:43.067Z,72.29
2024-05-09T01:33:11.877Z,71.89
2024-05-09T01:35:40.179Z,72.40
2024-05-09T01:38:07.707Z,72.55
2024-05-09T01:40:44.058Z,73.35
2024-05-09T01:43:12.095Z,72.67
2024-05-09T01:45:39.674Z,73.49
2024-05-09T01:48:16.231Z,73.11
2024-05-09T01:50:43.841Z,72.90
2024-05-09T01:53:11.610Z,72.75
2024-05-09T01:55:39.142Z,72.99
2024-05-09T01:58:15.381Z,72.84
2024-05-09T02:00:43.559Z,74.04
2024-05-09T02:03:14.043Z,73.62
2024-05-09T02:05:43.933Z,73.98
2024-05-09T02:08:11.491Z,74.81
2024-05-09T02:10:48.111Z,74.55
2024-05-09T02:13:24.595Z,73.92
2024-05-09T02:16:00.830Z,74.39
2024-05-09T02:18:28.157Z,74.32
2024-05-09T02:21:04.527Z,73.47
2024-05-09T02:23:31.970Z,74.05
2024-05-09T02:25:59.370Z,75.27
2024-05-09T02:28:26.748Z,75.39
2024-05-09T02:30:53.940Z,75.13
2024-05-09T02:33:30.218Z,76.09
2024-05-09T02:36:06.616Z,76.09
2024-05-09T02:38:34.068Z,75.37
2024-05-09T02:41:10.461Z,75.63
2024-05-09T02:43:46.763Z,75.59
2024-05-09T02:46:14.058Z,75.06
2024-05-09T02:48:50.394Z,76.40
2024-05-09T02:51:17.803Z,76.51
2024-05-09T02:53:45.154Z,76.34
2024-05-09T02:56:21.400Z,75.87
2024-05-09T02:58:48.733Z,75.59
2024-05-09T03:01:16.141Z,75.72
2024-05-09T03:03:43.561Z,75.61
2024-05-09T03:06:19.832Z,75.19
2024-05-09T03:08:46.613Z,76.11
2024-05-09T03:11:13.424Z,75.92
2024-05-09T03:13:40.279Z,74.55
2024-05-09T03:16:07.104Z,75.54
2024-05-09T03:18:33.913Z,75.73
2024-05-09T03:21:00.953Z,75.30
2024-05-09T03:23:27.858Z,74.92
2024-05-09T03:25:54.741Z,74.15
2024-05-09T03:28:21.531Z,74.65
2024-05-09T03:30:48.307Z,74.95
2024-05-09T03:33:15.912Z,74.61
2024-05-09T03:35:43.052Z,75.03
2024-05-09T03:38:10.076Z,73.64
2024-05-09T03:40:36.882Z,74.51
2024-05-09T03:43:03.629Z,73.90
2024-05-09T03:45:30.388Z,74.77
2024-05-09T03:47:57.488Z,74.32
2024-05-09T03:50:30.169Z,75.04
2024-05-09T03:53:01.176Z,74.12
2024-05-09T03:55:28.089Z,74.85
2024-05-09T03:57:54.868Z,74.47
2024-05-09T04:00:30.720Z,74.15
2024-05-09T04:03:04.160Z,73.74
2024-05-09T04:05:31.527Z,74.12
2024-05-09T04:07:59.008Z,73.57
2024-05-09T04:10:35.671Z,73.77
2024-05-09T04:13:03.598Z,73.04
2024-05-09T04:15:31.404Z,74.39
2024-05-09T04:17:59.198Z,73.74
2024-05-09T04:20:39.220Z,74.20
2024-05-09T04:23:17.140Z,73.88
2024-05-09T04:25:54.450Z,73.59
2024-05-09T04:28:21.782Z,72.87
2024-05-09T04:30:49.072Z,73.13
2024-05-09T04:33:16.515Z,72.87
2024-05-09T04:35:52.820Z,71.43
2024-05-09T04:38:29.080Z,72.20
2024-05-09T04:40:56.489Z,72.15
2024-05-09T04:43:23.635Z,71.94
2024-05-09T04:45:50.971Z,72.68
2024-05-09T04:48:18.493Z,71.61
2024-05-09T04:50:45.984Z,71.44
2024-05-09T04:53:13.350Z,71.13
2024-05-09T04:55:49.639Z,70.52
2024-05-09T04:58:25.871Z,71.51
2024-05-09T05:00:53.043Z,71.02
2024-05-09T05:03:20.482Z,69.92
2024-05-09T05:05:57.133Z,70.01
2024-05-09T05:08:33.573Z,69.65
2024-05-09T05:11:10.043Z,69.73
2024-05-09T05:13:40.146Z,69.87
2024-05-09T05:16:08.745Z,69.77
2024-05-09T05:18:36.174Z,69.03
2024-05-09T05:21:03.630Z,67.68
2024-05-09T05:23:31.016Z,68.30
2024-05-09T05:25:58.377Z,69.08
2024-05-09T05:28:25.747Z,69.37
2024-05-09T05:30:53.029Z,67.81
2024-05-09T05:33:20.813Z,68.63
2024-05-09T05:35:48.357Z,69.28
2024-05-09T05:38:27.506Z,70.60
2024-05-09T05:40:55.754Z,69.30
2024-05-09T05:43:32.124Z,69.81
2024-05-09T05:45:59.428Z,69.42
2024-05-09T05:48:35.767Z,68.80
2024-05-09T05:51:07.148Z,67.39
2024-05-09T05:53:34.807Z,68.99
2024-05-09T05:56:02.196Z,69.21
2024-05-09T05:58:29.552Z,68.98
2024-05-09T06:00:56.757Z,70.18
2024-05-09T06:03:33.036Z,70.02
2024-05-09T06:06:09.295Z,68.25
2024-05-09T06:08:36.541Z,68.93
2024-05-09T06:11:04.129Z,68.31
2024-05-09T06:13:31.360Z,70.12
2024-05-09T06:15:58.514Z,68.26
2024-05-09T06:18:26.149Z,66.97
2024-05-09T06:21:11.849Z,63.92
2024-05-09T06:23:39.240Z,60.89
2024-05-09T06:26:06.528Z,59.91
2024-05-09T06:28:42.792Z,58.33
2024-05-09T06:33:45.553Z,59.32
2024-05-09T06:36:12.810Z,60.18
2024-05-09T06:38:40.165Z,60.65
2024-05-09T06:43:49.521Z,58.93
2024-05-09T06:46:25.766Z,58.68
2024-05-09T06:49:02.202Z,58.66
2024-05-09T06:51:29.701Z,58.87
2024-05-09T07:04:38.299Z,61.73
2024-05-09T07:07:05.125Z,60.14
2024-05-09T07:14:41.667Z,60.94
2024-05-09T07:17:08.641Z,61.76
2024-05-09T07:19:35.642Z,61.27
2024-05-09T07:30:00.654Z,59.41
2024-05-09T07:53:48.157Z,55.44
2024-05-09T07:56:19.741Z,54.24
2024-05-09T08:01:30.813Z,50.32
2024-05-09T08:31:45.777Z,46.12
2024-05-09T08:34:13.140Z,50.67
2024-05-09T08:36:49.373Z,48.05
2024-05-09T08:42:21.690Z,49.69
2024-05-09T08:44:48.956Z,50.23
2024-05-09T08:47:16.137Z,50.51
2024-05-09T08:49:57.336Z,49.71
2024-05-09T08:52:33.613Z,50.57
2024-05-09T08:55:00.862Z,51.25
2024-05-09T08:57:28.146Z,54.16
2024-05-09T09:02:40.927Z,51.83
2024-05-09T09:10:31.067Z,50.94
2024-05-09T09:12:59.560Z,51.55
2024-05-09T09:18:14.938Z,50.80
2024-05-09T09:20:51.259Z,50.18
2024-05-09T09:23:27.446Z,51.70
2024-05-09T09:26:03.618Z,53.99
2024-05-09T09:31:04.373Z,49.40
2024-05-09T09:33:40.807Z,51.72
2024-05-09T09:36:09.638Z,49.52
2024-05-09T09:38:38.649Z,48.62
2024-05-09T09:41:06.133Z,47.44
2024-05-09T09:43:42.367Z,50.44
2024-05-09T09:49:01.687Z,47.61
2024-05-09T09:51:38.022Z,45.07
2024-05-09T09:59:31.601Z,51.71
2024-05-09T10:01:59.077Z,48.83
2024-05-09T10:04:26.491Z,48.83
2024-05-09T10:07:02.865Z,51.97
2024-05-09T10:09:30.218Z,47.18
2024-05-09T10:14:28.309Z,49.39
2024-05-09T10:17:04.553Z,47.61
2024-05-09T10:19:32.114Z,46.69
2024-05-09T10:21:59.352Z,45.58
2024-05-09T10:24:26.474Z,45.48
2024-05-09T10:26:53.870Z,48.86
2024-05-09T10:29:21.065Z,46.86
2024-05-09T10:31:48.441Z,45.21
2024-05-09T10:34:15.765Z,49.87
2024-05-09T10:36:43.232Z,49.27
2024-05-09T10:39:10.448Z,47.46
2024-05-09T10:41:46.644Z,51.90
2024-05-09T10:44:13.944Z,51.19
2024-05-09T10:46:50.149Z,55.75
2024-05-09T10:49:26.494Z,53.64
2024-05-09T10:51:53.946Z,51.67
2024-05-09T10:54:21.274Z,50.97
2024-05-09T10:56:57.462Z,50.93
2024-05-09T10:59:24.613Z,50.50
2024-05-09T11:01:51.830Z,50.51
2024-05-09T11:04:19.244Z,51.21
2024-05-09T11:06:46.683Z,52.40
2024-05-09T11:09:22.900Z,56.53
2024-05-09T11:11:50.100Z,51.58
2024-05-09T11:14:17.442Z,51.85
2024-05-09T11:16:53.654Z,50.96
2024-05-09T11:19:21.112Z,52.92
2024-05-09T11:21:57.432Z,53.26
2024-05-09T11:24:33.646Z,52.83
2024-05-09T11:27:09.871Z,50.95
2024-05-09T11:29:46.023Z,56.27
2024-05-09T11:32:13.230Z,53.44
2024-05-09T11:34:49.397Z,52.96
2024-05-09T11:37:25.687Z,55.48
2024-05-09T11:40:01.952Z,54.31
2024-05-09T11:42:38.213Z,52.00
2024-05-09T11:45:05.489Z,54.74
2024-05-09T11:47:32.714Z,53.72
2024-05-09T11:50:00.126Z,55.08
2024-05-09T11:52:36.353Z,55.52
2024-05-09T11:55:03.554Z,57.39
2024-05-09T11:57:39.829Z,55.40
2024-05-09T12:00:09.403Z,55.87
2024-05-09T12:02:36.917Z,56.80
2024-05-09T12:05:04.351Z,55.16
2024-05-09T12:07:40.623Z,57.22
2024-05-09T12:10:11.963Z,57.30
2024-05-09T12:12:52.787Z,59.46
2024-05-09T12:15:19.958Z,56.76
2024-05-09T12:17:49.544Z,54.96
2024-05-09T12:20:25.776Z,54.31
2024-05-09T12:23:00.411Z,52.88
2024-05-09T12:25:27.669Z,51.63
2024-05-09T12:28:03.937Z,53.65
2024-05-09T12:30:36.829Z,54.50
2024-05-09T12:33:06.929Z,53.65
2024-05-09T12:35:45.491Z,56.51
2024-05-09T12:38:23.526Z,53.36
2024-05-09T12:40:50.832Z,55.08
2024-05-09T12:43:27.294Z,55.23
2024-05-09T12:45:54.681Z,56.00
2024-05-09T12:48:21.985Z,53.98
2024-05-09T12:50:49.598Z,54.53
2024-05-09T12:53:16.980Z,55.60
2024-05-09T12:55:57.046Z,55.94
2024-05-09T12:58:36.638Z,55.12
2024-05-09T13:01:04.116Z,55.58
2024-05-09T13:03:31.463Z,54.65
2024-05-09T13:05:58.900Z,58.36
2024-05-09T13:08:26.194Z,53.90
2024-05-09T13:10:53.418Z,56.19
2024-05-09T13:13:20.734Z,55.45
2024-05-09T13:15:48.191Z,55.91
2024-05-09T13:18:15.554Z,55.01
2024-05-09T13:20:42.907Z,53.61
2024-05-09T13:23:19.118Z,54.80
2024-05-09T13:25:46.509Z,55.99
2024-05-09T13:28:13.910Z,51.49
2024-05-09T13:30:42.331Z,55.09
2024-05-09T13:33:19.014Z,54.61
2024-05-09T13:35:49.749Z,54.37
2024-05-09T13:38:18.501Z,51.56
2024-05-09T13:40:55.010Z,57.10
2024-05-09T13:43:31.256Z,51.39
2024-05-09T13:45:58.636Z,50.85
2024-05-09T13:48:35.061Z,50.10
2024-05-09T13:51:02.288Z,52.31
2024-05-09T13:53:29.428Z,51.99
2024-05-09T13:55:56.617Z,53.17
2024-05-09T13:58:24.115Z,53.94
2024-05-09T14:00:51.596Z,53.93
2024-05-09T14:03:20.354Z,53.44
2024-05-09T14:08:23.632Z,51.01
2024-05-09T14:11:30.910Z,50.74
2024-05-09T14:14:29.799Z,54.02
2024-05-09T14:17:06.652Z,53.37
2024-05-09T14:19:33.791Z,50.97
2024-05-09T14:22:03.211Z,50.32
2024-05-09T14:24:39.664Z,51.41
2024-05-09T14:27:15.890Z,51.31
2024-05-09T14:29:52.085Z,54.66
2024-05-09T14:32:28.366Z,55.10
2024-05-09T14:35:04.767Z,53.16
2024-05-09T14:37:32.490Z,50.20
2024-05-09T14:40:17.873Z,51.31
2024-05-09T14:42:53.570Z,49.76
2024-05-09T14:45:20.785Z,51.84
2024-05-09T14:47:48.248Z,51.88
2024-05-09T14:50:34.452Z,50.84
2024-05-09T14:53:14.174Z,49.83
2024-05-09T14:55:42.928Z,51.86
2024-05-09T14:58:20.242Z,50.18
2024-05-09T15:00:50.392Z,49.69
2024-05-09T15:03:19.222Z,49.53
2024-05-09T15:05:46.825Z,50.19
2024-05-09T15:08:23.001Z,51.09
2024-05-09T15:10:59.398Z,52.49
2024-05-09T15:16:08.277Z,52.67
2024-05-09T15:18:35.594Z,51.25
2024-05-09T15:23:38.398Z,52.24
2024-05-09T15:28:41.051Z,49.97
2024-05-09T15:31:08.370Z,49.82
2024-05-09T15:33:35.817Z,52.58
2024-05-09T15:36:12.053Z,51.93
2024-05-09T15:38:39.264Z,52.35
2024-05-09T15:41:06.544Z,50.48
2024-05-09T15:43:33.460Z,53.21
2024-05-09T15:46:00.385Z,52.29
2024-05-09T15:48:27.347Z,54.04
2024-05-09T15:50:54.254Z,54.31
2024-05-09T15:53:21.143Z,51.71
2024-05-09T15:58:22.404Z,50.55
2024-05-09T16:00:51.493Z,50.75
2024-05-09T16:03:19.020Z,51.71
2024-05-09T16:05:47.920Z,52.43
2024-05-09T16:08:15.271Z,49.89
2024-05-09T16:10:44.234Z,51.85
2024-05-09T16:13:12.196Z,52.42
2024-05-09T16:15:39.251Z,52.00
2024-05-09T16:18:06.187Z,50.77
2024-05-09T16:20:39.077Z,52.02
2024-05-09T16:23:09.022Z,50.69
2024-05-09T16:25:36.203Z,50.75
2024-05-09T16:28:04.893Z,50.80
2024-05-09T16:30:35.690Z,52.05
2024-05-09T16:35:35.970Z,50.45
2024-05-09T16:38:02.839Z,50.60
2024-05-09T16:40:36.954Z,52.20
2024-05-09T16:43:07.833Z,51.64
2024-05-09T16:45:44.613Z,48.90
2024-05-09T16:48:21.175Z,50.82
2024-05-09T16:50:48.356Z,50.80
2024-05-09T16:53:15.601Z,51.38
2024-05-09T16:55:42.767Z,51.58
2024-05-09T17:06:48.630Z,51.09
2024-05-09T17:09:19.645Z,50.81
2024-05-09T17:11:56.333Z,48.99
2024-05-09T17:17:12.648Z,51.92
2024-05-09T17:22:31.143Z,51.56
2024-05-09T17:27:38.719Z,52.78
2024-05-09T17:30:06.406Z,51.58
2024-05-09T17:32:35.035Z,52.03
2024-05-09T17:35:02.287Z,51.63
2024-05-09T17:37:29.502Z,51.32
2024-05-09T17:39:56.439Z,52.06
2024-05-09T17:42:25.240Z,50.58
2024-05-09T17:44:52.079Z,52.18
2024-05-09T17:50:00.808Z,52.14
2024-05-09T17:52:27.657Z,51.15
2024-05-09T17:54:54.464Z,53.45
2024-05-09T17:57:21.307Z,50.89
2024-05-09T17:59:48.175Z,51.94
2024-05-09T18:02:15.123Z,52.70
2024-05-09T18:04:42.039Z,51.72
2024-05-09T18:07:09.421Z,51.08
2024-05-09T18:09:36.331Z,50.78
2024-05-09T18:12:03.248Z,51.41
2024-05-09T18:14:30.036Z,50.63
2024-05-09T18:16:57.568Z,50.60
2024-05-09T18:22:01.402Z,50.96
2024-05-09T18:24:28.706Z,51.08
2024-05-09T18:26:55.520Z,50.60
2024-05-09T18:29:22.538Z,51.40
2024-05-09T18:31:49.494Z,51.71
2024-05-09T18:34:16.500Z,51.09
2024-05-09T18:36:43.511Z,51.89
2024-05-09T18:39:10.314Z,51.71
2024-05-09T18:41:37.090Z,51.46
2024-05-09T18:44:03.956Z,52.37
2024-05-09T18:46:30.951Z,53.23
2024-05-09T18:48:57.961Z,55.28
2024-05-09T18:51:24.907Z,58.36
2024-05-09T18:53:51.680Z,56.86
2024-05-09T18:56:18.465Z,56.27
2024-05-09T18:58:45.277Z,55.50
2024-05-09T19:01:12.168Z,55.59
2024-05-09T19:03:39.263Z,56.60
2024-05-09T19:06:06.297Z,56.63
2024-05-09T19:08:33.164Z,57.13
2024-05-09T19:11:00.015Z,56.61
2024-05-09T19:13:27.012Z,56.55
2024-05-09T19:15:54.010Z,56.44
2024-05-09T19:18:20.937Z,57.37
2024-05-09T19:20:47.912Z,57.56
2024-05-09T19:23:14.813Z,57.09
2024-05-09T19:25:42.017Z,57.34
2024-05-09T19:28:18.372Z,58.45
2024-05-09T19:30:54.633Z,61.56
2024-05-09T19:33:21.476Z,63.52
2024-05-09T19:35:48.340Z,63.61
2024-05-09T19:38:15.116Z,64.65
2024-05-09T19:40:42.115Z,63.73
2024-05-09T19:43:09.213Z,64.27
2024-05-09T19:45:36.761Z,65.55
2024-05-09T19:48:04.135Z,64.06
2024-05-09T19:50:37.898Z,66.18
2024-05-09T19:53:09.651Z,66.69
2024-05-09T19:55:36.589Z,67.37
2024-05-09T19:58:05.343Z,67.08
2024-05-09T20:00:36.214Z,67.98
2024-05-09T20:03:04.999Z,65.49
2024-05-09T20:05:31.923Z,67.29
2024-05-09T20:07:58.891Z,68.00
2024-05-09T20:10:31.453Z,68.48
2024-05-09T20:13:00.417Z,68.86
2024-05-09T20:15:27.389Z,68.76
2024-05-09T20:17:55.093Z,68.95
2024-05-09T20:22:51.982Z,67.95
2024-05-09T20:25:18.834Z,68.92
2024-05-09T20:27:45.711Z,68.76
2024-05-09T20:30:17.213Z,69.67
2024-05-09T20:32:52.066Z,69.27
2024-05-09T20:35:19.457Z,69.19
2024-05-09T20:37:55.630Z,68.61
2024-05-09T20:40:35.497Z,68.91
2024-05-09T20:43:05.973Z,68.52
2024-05-09T20:45:34.101Z,68.93
2024-05-09T20:48:01.965Z,68.54
2024-05-09T20:50:37.176Z,69.44
2024-05-09T20:53:07.894Z,70.24
2024-05-09T20:55:35.128Z,69.71
2024-05-09T20:58:02.487Z,68.94
2024-05-09T21:00:42.558Z,69.10
2024-05-09T21:03:12.528Z,69.36
2024-05-09T21:05:40.250Z,68.32
2024-05-09T21:08:07.287Z,67.93
2024-05-09T21:10:34.710Z,66.86
2024-05-09T21:13:03.059Z,66.88
2024-05-09T21:15:30.668Z,66.47
2024-05-09T21:17:57.529Z,68.25
2024-05-09T21:20:30.444Z,69.06
2024-05-09T21:22:58.944Z,68.96
2024-05-09T21:25:25.971Z,69.14
2024-05-09T21:27:53.049Z,68.95
2024-05-09T21:30:31.306Z,68.93
2024-05-09T21:33:05.837Z,68.67
2024-05-09T21:35:36.333Z,68.32
2024-05-09T21:38:03.075Z,69.19
2024-05-09T21:40:34.424Z,70.63
2024-05-09T21:43:03.076Z,70.83
2024-05-09T21:45:30.108Z,70.83
2024-05-09T21:50:39.187Z,70.43
2024-05-09T21:53:08.276Z,71.65
2024-05-09T21:55:35.147Z,71.22
2024-05-09T21:58:02.277Z,71.56
2024-05-09T22:00:36.035Z,71.21
2024-05-09T22:03:05.707Z,69.63
2024-05-09T22:05:33.385Z,69.99
2024-05-09T22:08:09.693Z,69.96
2024-05-09T22:10:37.560Z,69.30
2024-05-09T22:13:14.043Z,69.87
2024-05-09T22:15:41.554Z,70.27
2024-05-09T22:18:11.027Z,70.25
2024-05-09T22:20:39.817Z,70.07
2024-05-09T22:23:16.201Z,70.76
2024-05-09T22:25:52.447Z,70.44
2024-05-09T22:28:20.015Z,69.34
2024-05-09T22:30:47.808Z,70.10
2024-05-09T22:33:15.367Z,69.57
2024-05-09T22:35:51.779Z,69.30
2024-05-09T22:38:27.938Z,70.40
2024-05-09T22:40:55.314Z,69.05
2024-05-09T22:43:31.664Z,69.46
2024-05-09T22:45:59.129Z,69.83
2024-05-09T22:48:26.686Z,69.58
2024-05-09T22:51:03.044Z,69.03
2024-05-09T22:53:30.195Z,69.07
2024-05-09T22:55:57.387Z,69.26
2024-05-09T22:58:24.820Z,69.62
2024-05-09T23:00:52.275Z,68.82
2024-05-09T23:03:28.768Z,68.27
2024-05-09T23:06:05.062Z,68.31
2024-05-09T23:08:32.400Z,68.63
2024-05-09T23:10:59.856Z,68.71
2024-05-09T23:13:36.069Z,70.69
2024-05-09T23:16:12.264Z,70.76
2024-05-09T23:18:39.720Z,69.86
2024-05-09T23:21:07.108Z,70.73
2024-05-09T23:23:43.283Z,71.02
2024-05-09T23:26:19.397Z,70.42
2024-05-09T23:28:46.598Z,70.19
2024-05-09T23:31:22.803Z,70.33
2024-05-09T23:33:50.210Z,70.57
2024-05-09T23:36:17.450Z,70.62
2024-05-09T23:38:44.759Z,71.71
2024-05-09T23:41:12.035Z,72.24
2024-05-09T23:43:39.313Z,73.61
2024-05-09T23:46:06.616Z,73.74
2024-05-09T23:48:42.964Z,73.89
2024-05-09T23:51:10.315Z,74.41
2024-05-09T23:53:37.606Z,74.54
2024-05-09T23:56:04.877Z,73.63
2024-05-09T23:58:32.191Z,73.70
